createdAt,value
2022-09-13T00:01:12.270Z,14.45
2022-09-13T00:03:42.966Z,14.50
2022-09-13T00:06:13.421Z,14.60
2022-09-13T00:08:42.622Z,14.67
2022-09-13T00:11:17.868Z,14.66
2022-09-13T00:13:47.171Z,14.67
2022-09-13T00:16:18.958Z,14.67
2022-09-13T00:18:49.307Z,14.54
2022-09-13T00:21:20.727Z,14.46
2022-09-13T00:23:50.792Z,14.51
2022-09-13T00:26:21.319Z,14.60
2022-09-13T00:28:52.226Z,14.62
2022-09-13T00:31:23.383Z,14.60
2022-09-13T00:33:53.490Z,14.48
2022-09-13T00:36:21.985Z,14.41
2022-09-13T00:38:50.348Z,14.37
2022-09-13T00:41:21.264Z,14.36
2022-09-13T00:43:52.447Z,14.40
2022-09-13T00:46:29.626Z,14.50
2022-09-13T00:49:04.173Z,14.52
2022-09-13T00:51:33.038Z,14.55
2022-09-13T00:54:03.293Z,14.63
2022-09-13T00:56:35.579Z,14.68
2022-09-13T00:59:08.827Z,14.75
2022-09-13T01:01:44.520Z,14.83
2022-09-13T01:04:14.606Z,14.91
2022-09-13T01:06:44.068Z,14.98
2022-09-13T01:09:13.686Z,15.05
2022-09-13T01:11:49.121Z,15.11
2022-09-13T01:14:19.774Z,15.15
2022-09-13T01:16:48.305Z,15.20
2022-09-13T01:19:18.517Z,15.22
2022-09-13T01:22:24.840Z,15.26
2022-09-13T01:25:17.279Z,15.28
2022-09-13T01:28:24.849Z,15.27
2022-09-13T01:31:01.169Z,15.25
2022-09-13T01:33:48.219Z,15.21
2022-09-13T01:36:34.503Z,15.20
2022-09-13T01:39:06.012Z,15.19
2022-09-13T01:41:55.411Z,15.21
2022-09-13T01:44:40.601Z,15.21
2022-09-13T01:47:24.325Z,15.18
2022-09-13T01:50:04.716Z,15.15
2022-09-13T01:52:43.074Z,15.15
2022-09-13T01:55:19.295Z,15.16
2022-09-13T01:57:54.316Z,15.15
2022-09-13T02:00:22.664Z,15.14
2022-09-13T02:02:59.724Z,15.15
2022-09-13T02:05:33.055Z,15.18
2022-09-13T02:08:07.896Z,15.19
2022-09-13T02:10:40.938Z,15.19
2022-09-13T02:13:15.148Z,15.16
2022-09-13T02:15:48.250Z,15.13
2022-09-13T02:18:23.056Z,15.13
2022-09-13T02:21:44.564Z,15.15
2022-09-13T02:24:18.398Z,15.12
2022-09-13T02:26:49.148Z,15.11
2022-09-13T02:29:21.192Z,15.09
2022-09-13T02:31:56.711Z,15.06
2022-09-13T02:34:32.193Z,15.03
2022-09-13T02:37:03.952Z,15.01
2022-09-13T02:39:37.209Z,15.03
2022-09-13T02:42:12.798Z,15.03
2022-09-13T02:44:44.699Z,15.02
2022-09-13T02:47:28.323Z,15.01
2022-09-13T02:50:09.156Z,15.00
2022-09-13T02:52:46.917Z,14.96
2022-09-13T02:55:22.793Z,14.93
2022-09-13T02:58:02.481Z,14.91
2022-09-13T03:00:31.689Z,14.89
2022-09-13T03:03:03.896Z,14.86
2022-09-13T03:05:34.024Z,14.83
2022-09-13T03:08:03.319Z,14.81
2022-09-13T03:10:43.256Z,14.79
2022-09-13T03:13:41.156Z,14.76
2022-09-13T03:16:25.116Z,14.78
2022-09-13T03:19:04.420Z,14.81
2022-09-13T03:21:53.536Z,14.83
2022-09-13T03:24:26.795Z,14.81
2022-09-13T03:27:10.656Z,14.80
2022-09-13T03:29:46.875Z,14.79
2022-09-13T03:32:25.946Z,14.80
2022-09-13T03:35:05.547Z,14.78
2022-09-13T03:37:46.388Z,14.79
2022-09-13T03:40:18.681Z,14.80
2022-09-13T03:42:53.394Z,14.79
2022-09-13T03:45:31.759Z,14.80
2022-09-13T03:48:00.994Z,14.85
2022-09-13T03:50:30.140Z,14.84
2022-09-13T03:53:03.620Z,14.80
2022-09-13T03:55:34.547Z,14.78
2022-09-13T03:58:02.948Z,14.80
2022-09-13T04:00:31.323Z,14.81
2022-09-13T04:02:59.651Z,14.82
2022-09-13T04:05:28.111Z,14.79
2022-09-13T04:07:56.908Z,14.76
2022-09-13T04:10:26.648Z,14.73
2022-09-13T04:12:55.832Z,14.73
2022-09-13T04:15:24.662Z,14.71
2022-09-13T04:17:53.041Z,14.70
2022-09-13T04:20:22.077Z,14.69
2022-09-13T04:22:53.663Z,14.68
2022-09-13T04:25:22.827Z,14.67
2022-09-13T04:27:56.993Z,14.65
2022-09-13T04:30:25.528Z,14.64
2022-09-13T04:32:54.622Z,14.61
2022-09-13T04:35:22.980Z,14.59
2022-09-13T04:37:51.509Z,14.59
2022-09-13T04:40:21.716Z,14.60
2022-09-13T04:42:50.154Z,14.59
2022-09-13T04:45:19.879Z,14.59
2022-09-13T04:47:52.786Z,14.58
2022-09-13T04:50:21.744Z,14.56
2022-09-13T04:52:50.692Z,14.54
2022-09-13T04:55:19.019Z,14.53
2022-09-13T04:57:54.372Z,14.49
2022-09-13T05:00:24.331Z,14.45
2022-09-13T05:02:56.438Z,14.43
2022-09-13T05:05:25.807Z,14.42
2022-09-13T05:07:54.474Z,14.43
2022-09-13T05:10:22.998Z,14.43
2022-09-13T05:12:51.599Z,14.42
2022-09-13T05:15:19.906Z,14.42
2022-09-13T05:17:49.637Z,14.42
2022-09-13T05:20:18.576Z,14.44
2022-09-13T05:22:47.082Z,14.45
2022-09-13T05:25:15.542Z,14.45
2022-09-13T05:27:43.920Z,14.46
2022-09-13T05:30:13.740Z,14.48
2022-09-13T05:32:42.201Z,14.50
2022-09-13T05:35:12.031Z,14.54
2022-09-13T05:37:40.481Z,14.54
2022-09-13T05:40:11.945Z,14.55
2022-09-13T05:42:40.816Z,14.59
2022-09-13T05:45:10.430Z,14.61
2022-09-13T05:47:39.370Z,14.65
2022-09-13T05:50:11.095Z,14.65
2022-09-13T05:52:41.693Z,14.66
2022-09-13T05:55:10.796Z,14.68
2022-09-13T05:57:39.456Z,14.70
2022-09-13T06:00:09.511Z,14.74
2022-09-13T06:02:38.775Z,14.79
2022-09-13T06:05:07.696Z,14.82
2022-09-13T06:07:36.043Z,14.86
2022-09-13T06:10:06.320Z,14.90
2022-09-13T06:12:34.661Z,14.93
2022-09-13T06:15:03.045Z,14.94
2022-09-13T06:17:31.570Z,14.97
2022-09-13T06:19:59.860Z,15.01
2022-09-13T06:22:33.228Z,15.05
2022-09-13T06:25:01.874Z,15.08
2022-09-13T06:27:31.881Z,15.10
2022-09-13T06:30:00.203Z,15.15
2022-09-13T06:32:28.554Z,15.19
2022-09-13T06:34:56.888Z,15.22
2022-09-13T06:37:25.309Z,15.27
2022-09-13T06:39:53.739Z,15.30
2022-09-13T06:42:22.358Z,15.35
2022-09-13T06:44:52.086Z,15.39
2022-09-13T06:47:20.500Z,15.43
2022-09-13T06:49:49.654Z,15.48
2022-09-13T06:52:18.134Z,15.53
2022-09-13T06:54:49.367Z,15.60
2022-09-13T06:57:17.841Z,15.65
2022-09-13T06:59:46.247Z,15.68
2022-09-13T07:02:16.858Z,15.73
2022-09-13T07:04:45.384Z,15.78
2022-09-13T07:07:13.777Z,15.80
2022-09-13T07:09:43.050Z,15.84
2022-09-13T07:12:11.429Z,15.86
2022-09-13T07:14:39.821Z,15.90
2022-09-13T07:17:08.289Z,15.94
2022-09-13T07:19:37.952Z,16.00
2022-09-13T07:22:06.312Z,16.02
2022-09-13T07:24:34.661Z,16.08
2022-09-13T07:27:03.658Z,16.12
2022-09-13T07:29:32.197Z,16.16
2022-09-13T07:32:00.525Z,16.23
2022-09-13T07:34:28.849Z,16.32
2022-09-13T07:36:58.677Z,16.38
2022-09-13T07:39:27.013Z,16.44
2022-09-13T07:41:56.698Z,16.51
2022-09-13T07:44:25.646Z,16.57
2022-09-13T07:46:54.119Z,16.64
2022-09-13T07:49:22.944Z,16.72
2022-09-13T07:51:53.028Z,16.79
2022-09-13T07:54:22.713Z,16.86
2022-09-13T07:56:51.922Z,16.94
2022-09-13T07:59:20.744Z,17.01
2022-09-13T08:01:50.454Z,17.11
2022-09-13T08:04:21.674Z,17.22
2022-09-13T08:06:49.984Z,17.30
2022-09-13T08:09:18.788Z,17.39
2022-09-13T08:11:51.798Z,17.49
2022-09-13T08:14:21.294Z,17.54
2022-09-13T08:16:49.725Z,17.60
2022-09-13T08:19:20.041Z,17.65
2022-09-13T08:21:49.044Z,17.73
2022-09-13T08:24:19.790Z,17.82
2022-09-13T08:26:51.969Z,17.90
2022-09-13T08:29:20.477Z,18.00
2022-09-13T08:31:48.870Z,18.09
2022-09-13T08:34:18.122Z,18.19
2022-09-13T08:36:47.249Z,18.30
2022-09-13T08:39:15.843Z,18.41
2022-09-13T08:42:03.920Z,18.54
2022-09-13T08:44:35.989Z,18.63
2022-09-13T08:47:18.077Z,18.74
2022-09-13T08:49:51.203Z,18.89
2022-09-13T08:52:29.510Z,19.05
2022-09-13T08:54:58.834Z,19.18
2022-09-13T08:57:35.472Z,19.31
2022-09-13T09:00:18.878Z,19.40
2022-09-13T09:03:17.096Z,19.45
2022-09-13T09:05:49.169Z,19.48
2022-09-13T09:08:31.203Z,19.50
2022-09-13T09:11:04.743Z,19.54
2022-09-13T09:13:40.246Z,19.59
2022-09-13T09:16:26.682Z,19.63
2022-09-13T09:19:00.972Z,19.67
2022-09-13T09:21:29.646Z,19.72
2022-09-13T09:23:59.315Z,19.79
2022-09-13T09:26:30.757Z,19.89
2022-09-13T09:29:02.856Z,20.00
2022-09-13T09:31:43.153Z,20.09
2022-09-13T09:34:22.773Z,20.21
2022-09-13T09:36:55.833Z,20.33
2022-09-13T09:39:32.645Z,20.46
2022-09-13T09:42:04.349Z,20.54
2022-09-13T09:44:34.927Z,20.56
2022-09-13T09:47:08.459Z,20.59
2022-09-13T09:49:59.623Z,20.63
2022-09-13T09:52:32.841Z,20.69
2022-09-13T09:55:13.957Z,20.79
2022-09-13T09:57:53.318Z,20.87
2022-09-13T10:00:25.084Z,20.95
2022-09-13T10:02:56.163Z,21.03
2022-09-13T10:05:26.343Z,21.14
2022-09-13T10:07:58.245Z,21.25
2022-09-13T10:10:33.515Z,21.37
2022-09-13T10:13:02.060Z,21.47
2022-09-13T10:15:36.179Z,21.60
2022-09-13T10:18:33.339Z,21.70
2022-09-13T10:21:06.493Z,21.72
2022-09-13T10:23:36.084Z,21.71
2022-09-13T10:26:12.311Z,21.71
2022-09-13T10:28:46.144Z,21.78
2022-09-13T10:31:18.578Z,21.90
2022-09-13T10:33:58.436Z,22.02
2022-09-13T10:36:51.109Z,22.13
2022-09-13T10:39:21.506Z,22.29
2022-09-13T10:41:52.788Z,22.39
2022-09-13T10:44:31.571Z,22.51
2022-09-13T10:47:04.423Z,22.56
2022-09-13T10:49:44.259Z,22.59
2022-09-13T10:52:34.081Z,22.65
2022-09-13T10:55:30.194Z,22.70
2022-09-13T10:58:20.412Z,22.84
2022-09-13T11:01:15.264Z,22.97
2022-09-13T11:04:07.028Z,23.10
2022-09-13T11:06:43.664Z,23.24
2022-09-13T11:09:17.086Z,23.34
2022-09-13T11:11:57.302Z,23.46
2022-09-13T11:14:40.158Z,23.57
2022-09-13T11:17:20.192Z,23.68
2022-09-13T11:20:09.394Z,23.78
2022-09-13T11:22:58.405Z,23.93
2022-09-13T11:25:38.627Z,24.03
2022-09-13T11:28:16.982Z,24.09
2022-09-13T11:31:02.151Z,24.17
2022-09-13T11:33:46.817Z,24.28
2022-09-13T11:36:33.664Z,24.41
2022-09-13T11:39:16.851Z,24.50
2022-09-13T11:41:57.760Z,24.59
2022-09-13T11:44:57.172Z,24.68
2022-09-13T11:47:37.756Z,24.80
2022-09-13T11:50:26.190Z,24.90
2022-09-13T11:53:12.196Z,24.93
2022-09-13T11:55:46.624Z,24.99
2022-09-13T11:58:20.885Z,25.15
2022-09-13T12:00:54.472Z,25.35
2022-09-13T12:03:31.727Z,25.49
2022-09-13T12:06:03.773Z,25.60
2022-09-13T12:08:39.739Z,25.76
2022-09-13T12:11:15.996Z,25.84
2022-09-13T12:13:49.340Z,25.93
2022-09-13T12:16:25.410Z,26.00
2022-09-13T12:18:58.057Z,26.03
2022-09-13T12:21:32.116Z,26.07
2022-09-13T12:24:09.508Z,26.05
2022-09-13T12:26:44.927Z,26.06
2022-09-13T12:29:19.243Z,26.07
2022-09-13T12:31:47.721Z,26.01
2022-09-13T12:34:23.585Z,25.97
2022-09-13T12:37:17.599Z,25.99
2022-09-13T12:40:16.072Z,25.99
2022-09-13T12:43:25.060Z,25.91
2022-09-13T12:46:10.289Z,25.92
2022-09-13T12:48:58.932Z,25.95
2022-09-13T12:51:43.410Z,25.95
2022-09-13T12:54:46.579Z,25.94
2022-09-13T12:57:32.697Z,25.98
2022-09-13T13:00:13.312Z,26.03
2022-09-13T13:02:45.440Z,26.04
2022-09-13T13:05:25.556Z,25.99
2022-09-13T13:07:57.922Z,25.96
2022-09-13T13:10:31.786Z,26.07
2022-09-13T13:13:16.989Z,26.17
2022-09-13T13:16:01.025Z,26.24
2022-09-13T13:18:32.259Z,26.34
2022-09-13T13:21:30.518Z,26.42
2022-09-13T13:24:36.552Z,26.47
2022-09-13T13:27:34.648Z,26.56
2022-09-13T13:30:52.357Z,26.69
2022-09-13T13:33:32.004Z,26.73
2022-09-13T13:36:24.863Z,26.75
2022-09-13T13:38:54.039Z,26.77
2022-09-13T13:41:50.471Z,26.80
2022-09-13T13:45:10.900Z,26.77
2022-09-13T13:47:55.483Z,26.69
2022-09-13T13:50:23.957Z,26.71
2022-09-13T13:52:55.956Z,26.81
2022-09-13T13:55:45.816Z,26.94
2022-09-13T13:58:28.555Z,27.06
2022-09-13T14:00:59.860Z,27.15
2022-09-13T14:03:47.898Z,27.20
2022-09-13T14:06:22.589Z,27.22
2022-09-13T14:09:07.012Z,27.19
2022-09-13T14:11:49.342Z,27.18
2022-09-13T14:14:33.532Z,27.23
2022-09-13T14:17:38.962Z,27.30
2022-09-13T14:20:12.868Z,27.29
2022-09-13T14:22:41.399Z,27.29
2022-09-13T14:25:23.678Z,27.27
2022-09-13T14:27:57.796Z,27.32
2022-09-13T14:30:30.633Z,27.41
2022-09-13T14:32:59.735Z,27.51
2022-09-13T14:35:32.123Z,27.59
2022-09-13T14:38:12.543Z,27.68
2022-09-13T14:40:40.838Z,27.71
2022-09-13T14:43:17.394Z,27.60
2022-09-13T14:45:49.680Z,27.52
2022-09-13T14:48:21.950Z,27.46
2022-09-13T14:50:56.852Z,27.39
2022-09-13T14:53:27.806Z,27.30
2022-09-13T14:56:00.225Z,27.20
2022-09-13T14:58:32.451Z,27.09
2022-09-13T15:01:04.659Z,26.99
2022-09-13T15:03:33.891Z,26.91
2022-09-13T15:06:06.123Z,26.82
2022-09-13T15:08:49.935Z,26.74
2022-09-13T15:11:29.944Z,26.68
2022-09-13T15:14:26.498Z,26.65
2022-09-13T15:17:00.766Z,26.60
2022-09-13T15:19:31.811Z,26.58
2022-09-13T15:22:14.945Z,26.53
2022-09-13T15:24:49.403Z,26.48
2022-09-13T15:27:21.011Z,26.43
2022-09-13T15:29:51.538Z,26.38
2022-09-13T15:32:25.552Z,26.33
2022-09-13T15:34:53.898Z,26.31
2022-09-13T15:37:33.007Z,26.31
2022-09-13T15:40:16.289Z,26.34
2022-09-13T15:42:52.213Z,26.30
2022-09-13T15:45:22.370Z,26.25
2022-09-13T15:47:52.931Z,26.18
2022-09-13T15:50:27.559Z,26.11
2022-09-13T15:52:58.442Z,26.05
2022-09-13T15:55:28.297Z,26.00
2022-09-13T15:57:56.838Z,25.95
2022-09-13T16:00:27.179Z,25.89
2022-09-13T16:02:55.793Z,25.85
2022-09-13T16:05:24.249Z,25.80
2022-09-13T16:07:54.157Z,25.75
2022-09-13T16:10:24.377Z,25.67
2022-09-13T16:12:52.723Z,25.63
2022-09-13T16:15:21.696Z,25.58
2022-09-13T16:17:50.123Z,25.55
2022-09-13T16:20:18.486Z,25.49
2022-09-13T16:22:47.087Z,25.45
2022-09-13T16:25:16.419Z,25.41
2022-09-13T16:27:46.502Z,25.37
2022-09-13T16:30:17.632Z,25.31
2022-09-13T16:32:45.962Z,25.28
2022-09-13T16:35:15.855Z,25.24
2022-09-13T16:37:44.500Z,25.19
2022-09-13T16:40:13.592Z,25.12
2022-09-13T16:42:42.763Z,25.06
2022-09-13T16:45:13.371Z,25.03
2022-09-13T16:47:42.388Z,24.98
2022-09-13T16:50:11.356Z,24.93
2022-09-13T16:52:39.939Z,24.86
2022-09-13T16:55:09.355Z,24.80
2022-09-13T16:57:39.137Z,24.74
2022-09-13T17:00:11.408Z,24.69
2022-09-13T17:02:43.492Z,24.64
2022-09-13T17:05:14.348Z,24.59
2022-09-13T17:07:44.004Z,24.55
2022-09-13T17:10:13.664Z,24.50
2022-09-13T17:12:42.251Z,24.45
2022-09-13T17:15:11.672Z,24.39
2022-09-13T17:17:41.918Z,24.31
2022-09-13T17:20:13.138Z,24.23
2022-09-13T17:22:44.399Z,24.14
2022-09-13T17:25:16.030Z,24.08
2022-09-13T17:27:44.597Z,24.00
2022-09-13T17:30:15.286Z,23.95
2022-09-13T17:32:45.131Z,23.89
2022-09-13T17:35:14.111Z,23.88
2022-09-13T17:37:42.536Z,23.86
2022-09-13T17:40:11.151Z,23.84
2022-09-13T17:42:39.547Z,23.82
2022-09-13T17:45:08.385Z,23.80
2022-09-13T17:47:36.678Z,23.78
2022-09-13T17:50:07.363Z,23.73
2022-09-13T17:52:35.897Z,23.68
2022-09-13T17:55:04.887Z,23.63
2022-09-13T17:57:33.243Z,23.54
2022-09-13T18:00:02.290Z,23.47
2022-09-13T18:02:30.690Z,23.37
2022-09-13T18:05:03.367Z,23.30
2022-09-13T18:07:35.119Z,23.25
2022-09-13T18:10:03.724Z,23.20
2022-09-13T18:12:33.329Z,23.17
2022-09-13T18:15:02.424Z,23.14
2022-09-13T18:17:31.049Z,23.11
2022-09-13T18:19:59.576Z,23.10
2022-09-13T18:22:27.895Z,23.08
2022-09-13T18:24:57.639Z,23.05
2022-09-13T18:27:26.125Z,23.02
2022-09-13T18:29:54.523Z,23.00
2022-09-13T18:32:22.860Z,22.95
2022-09-13T18:34:52.661Z,22.92
2022-09-13T18:37:21.038Z,22.88
2022-09-13T18:39:49.438Z,22.86
2022-09-13T18:42:19.118Z,22.84
2022-09-13T18:44:47.467Z,22.79
2022-09-13T18:47:18.106Z,22.72
2022-09-13T18:49:46.685Z,22.68
2022-09-13T18:52:15.744Z,22.64
2022-09-13T18:54:44.101Z,22.56
2022-09-13T18:57:12.571Z,22.51
2022-09-13T18:59:42.299Z,22.47
2022-09-13T19:02:11.728Z,22.41
2022-09-13T19:04:40.185Z,22.36
2022-09-13T19:07:08.558Z,22.23
2022-09-13T19:09:36.960Z,22.11
2022-09-13T19:12:05.643Z,22.03
2022-09-13T19:14:33.968Z,21.99
2022-09-13T19:17:04.616Z,21.96
2022-09-13T19:19:33.966Z,21.90
2022-09-13T19:22:02.313Z,21.77
2022-09-13T19:24:31.113Z,21.68
2022-09-13T19:26:59.539Z,21.64
2022-09-13T19:29:27.920Z,21.65
2022-09-13T19:31:57.617Z,21.63
2022-09-13T19:34:27.459Z,21.60
2022-09-13T19:36:58.055Z,21.61
2022-09-13T19:39:29.984Z,21.60
2022-09-13T19:42:00.056Z,21.60
2022-09-13T19:44:29.093Z,21.62
2022-09-13T19:47:36.246Z,21.64
2022-09-13T19:49:49.623Z,21.64
2022-09-13T19:52:18.046Z,21.62
2022-09-13T19:54:46.596Z,21.55
2022-09-13T19:57:15.255Z,21.52
2022-09-13T19:59:44.017Z,21.49
2022-09-13T20:02:12.676Z,21.50
2022-09-13T20:04:41.618Z,21.52
2022-09-13T20:07:13.547Z,21.51
2022-09-13T20:09:42.562Z,21.50
2022-09-13T20:12:12.719Z,21.47
2022-09-13T20:14:41.677Z,21.45
2022-09-13T20:17:10.080Z,21.40
2022-09-13T20:19:43.570Z,21.36
2022-09-13T20:22:16.415Z,21.30
2022-09-13T20:24:45.106Z,21.30
2022-09-13T20:27:13.759Z,21.28
2022-09-13T20:29:42.606Z,21.24
2022-09-13T20:32:11.444Z,21.19
2022-09-13T20:34:40.155Z,21.11
2022-09-13T20:37:09.070Z,21.04
2022-09-13T20:39:38.936Z,20.96
2022-09-13T20:42:10.020Z,20.88
2022-09-13T20:44:40.322Z,20.80
2022-09-13T20:47:09.048Z,20.71
2022-09-13T20:49:37.760Z,20.64
2022-09-13T20:52:06.746Z,20.56
2022-09-13T20:54:35.199Z,20.53
2022-09-13T20:57:05.448Z,20.49
2022-09-13T20:59:34.005Z,20.47
2022-09-13T21:02:02.901Z,20.49
2022-09-13T21:04:32.492Z,20.53
2022-09-13T21:07:18.766Z,20.55
2022-09-13T21:09:47.590Z,20.57
2022-09-13T21:12:17.537Z,20.60
2022-09-13T21:14:47.333Z,20.61
2022-09-13T21:17:16.151Z,20.57
2022-09-13T21:19:44.836Z,20.56
2022-09-13T21:22:13.793Z,20.55
2022-09-13T21:24:42.561Z,20.56
2022-09-13T21:27:12.073Z,20.58
2022-09-13T21:29:42.106Z,20.59
2022-09-13T21:32:10.825Z,20.62
2022-09-13T21:34:41.153Z,20.66
2022-09-13T21:37:09.877Z,20.72
2022-09-13T21:39:38.567Z,20.74
2022-09-13T21:42:08.945Z,20.75
2022-09-13T21:44:38.677Z,20.77
2022-09-13T21:47:08.841Z,20.80
2022-09-13T21:49:37.856Z,20.83
2022-09-13T21:52:06.764Z,20.84
2022-09-13T21:54:35.633Z,20.84
2022-09-13T21:57:04.273Z,20.81
2022-09-13T21:59:36.300Z,20.77
2022-09-13T22:02:05.097Z,20.77
2022-09-13T22:04:36.107Z,20.77
2022-09-13T22:07:05.043Z,20.76
2022-09-13T22:09:33.651Z,20.76
2022-09-13T22:12:02.686Z,20.74
2022-09-13T22:14:31.659Z,20.77
2022-09-13T22:17:01.666Z,20.77
2022-09-13T22:19:31.688Z,20.77
2022-09-13T22:22:01.713Z,20.76
2022-09-13T22:24:32.357Z,20.78
2022-09-13T22:27:01.235Z,20.78
2022-09-13T22:29:30.360Z,20.78
2022-09-13T22:31:59.482Z,20.80
2022-09-13T22:34:31.012Z,20.81
2022-09-13T22:37:01.290Z,20.78
2022-09-13T22:39:30.317Z,20.73
2022-09-13T22:41:58.900Z,20.69
2022-09-13T22:44:27.530Z,20.67
2022-09-13T22:46:55.963Z,20.67
2022-09-13T22:49:24.302Z,20.65
2022-09-13T22:51:53.075Z,20.64
2022-09-13T22:54:23.087Z,20.62
2022-09-13T22:56:51.390Z,20.60
2022-09-13T22:59:21.278Z,20.58
2022-09-13T23:01:50.355Z,20.59
2022-09-13T23:04:19.141Z,20.59
2022-09-13T23:06:48.100Z,20.55
2022-09-13T23:09:19.845Z,20.56
2022-09-13T23:11:49.592Z,20.55
2022-09-13T23:14:19.917Z,20.54
2022-09-13T23:16:51.203Z,20.51
2022-09-13T23:19:21.995Z,20.49
2022-09-13T23:21:50.621Z,20.45
2022-09-13T23:24:19.741Z,20.41
2022-09-13T23:26:49.818Z,20.40
2022-09-13T23:29:20.166Z,20.40
2022-09-13T23:31:50.675Z,20.38
2022-09-13T23:34:19.485Z,20.31
2022-09-13T23:36:47.993Z,20.17
2022-09-13T23:39:19.622Z,19.99
2022-09-13T23:41:51.557Z,20.02
2022-09-13T23:44:20.440Z,20.03
2022-09-13T23:46:49.192Z,19.96
2022-09-13T23:49:17.496Z,19.91
2022-09-13T23:51:46.051Z,19.90
2022-09-13T23:54:14.861Z,19.93
2022-09-13T23:56:43.299Z,19.95
2022-09-13T23:59:13.939Z,19.95
